Time;durP1;ratioP1;P1;durP2;ratioP2;P2;SDS_P1;SDS_P2;PMS_P1;PMS_P2;Temp;Humidity;BMP_temperature;BMP_pressure;BME280_temperature;BME280_humidity;BME280_pressure;Samples;Min_cycle;Max_cycle;Signal;HPM_P1;HPM_P2
2021/01/24 00:02:16;;;;;;;5.65;1.83;;;24.10;50.40;;;;;;6241996;23;20000;-70
2021/01/24 00:04:42;;;;;;;6.50;2.38;;;24.10;50.30;;;;;;6240660;23;20332;-70
2021/01/24 00:07:09;;;;;;;12.85;3.70;;;24.10;50.80;;;;;;6242553;23;20436;-70
2021/01/24 00:09:35;;;;;;;5.60;2.00;;;24.10;50.00;;;;;;6240825;23;20332;-70
2021/01/24 00:12:02;;;;;;;8.75;2.10;;;24.10;49.80;;;;;;6241768;23;19996;-74
2021/01/24 00:14:29;;;;;;;8.82;2.33;;;24.00;49.70;;;;;;6242254;23;20432;-70
2021/01/24 00:16:55;;;;;;;6.53;1.70;;;24.00;49.50;;;;;;6240961;23;19996;-70
2021/01/24 00:19:22;;;;;;;9.77;2.88;;;24.00;49.50;;;;;;6241590;23;20007;-71
2021/01/24 00:21:48;;;;;;;9.25;1.90;;;24.00;49.50;;;;;;6240902;23;20000;-70
2021/01/24 00:24:15;;;;;;;9.55;3.47;;;24.00;49.50;;;;;;6241969;23;20008;-70
2021/01/24 00:26:42;;;;;;;6.18;1.75;;;24.00;49.50;;;;;;6241457;23;20003;-72
2021/01/24 00:29:08;;;;;;;7.60;3.13;;;24.00;49.60;;;;;;6242172;23;20119;-70
2021/01/24 00:31:35;;;;;;;6.70;2.22;;;24.00;49.60;;;;;;6241711;23;19996;-70
2021/01/24 00:34:02;;;;;;;5.63;1.70;;;23.90;49.70;;;;;;6241151;23;20008;-70
2021/01/24 00:36:29;;;;;;;5.72;2.85;;;23.90;49.90;;;;;;6241571;23;20331;-71
2021/01/24 00:38:55;;;;;;;4.15;2.10;;;23.90;50.00;;;;;;6239964;23;20000;-71
2021/01/24 00:41:22;;;;;;;4.13;1.90;;;23.90;50.00;;;;;;6241512;22;20000;-71
2021/01/24 00:43:48;;;;;;;4.15;1.75;;;23.90;50.10;;;;;;6239897;22;20031;-70
2021/01/24 00:46:15;;;;;;;11.07;3.60;;;23.90;50.20;;;;;;6242104;23;20004;-70
2021/01/24 00:48:41;;;;;;;6.80;1.98;;;23.90;50.30;;;;;;6240664;23;20023;-72
2021/01/24 00:51:08;;;;;;;13.20;3.45;;;23.90;50.40;;;;;;6240837;23;20000;-71
2021/01/24 00:53:34;;;;;;;7.88;2.95;;;23.90;50.50;;;;;;6241583;22;20004;-71
2021/01/24 00:56:01;;;;;;;7.03;2.45;;;23.80;50.60;;;;;;6238749;23;20011;-70
2021/01/24 00:58:27;;;;;;;10.18;3.40;;;23.80;50.50;;;;;;6241715;23;20450;-71
2021/01/24 01:00:54;;;;;;;8.25;2.55;;;23.80;50.40;;;;;;6238633;23;20034;-70
2021/01/24 01:03:20;;;;;;;6.57;2.38;;;23.80;50.50;;;;;;6241452;23;20000;-70
2021/01/24 01:05:47;;;;;;;11.48;2.20;;;23.80;50.50;;;;;;6240159;23;20012;-70
2021/01/24 01:08:14;;;;;;;9.48;2.15;;;23.80;50.50;;;;;;6241406;23;20016;-70
2021/01/24 01:10:41;;;;;;;4.65;1.50;;;23.80;50.50;;;;;;6241711;23;20000;-71
2021/01/24 01:13:47;;;;;;;6.50;2.38;;;23.70;50.30;;;;;;6236388;23;20000;-72
2021/01/24 01:16:53;;;;;;;8.45;2.50;;;23.80;50.50;;;;;;6241225;23;20359;-70
2021/01/24 01:19:59;;;;;;;7.85;2.63;;;23.70;50.50;;;;;;6240607;23;20000;-73
2021/01/24 01:23:06;;;;;;;7.20;2.45;;;23.80;50.60;;;;;;6239375;23;20004;-70
2021/01/24 01:26:15;;;;;;;7.07;2.20;;;23.70;50.50;;;;;;6240815;23;20031;-76
2021/01/24 01:29:21;;;;;;;12.77;2.55;;;23.70;50.40;;;;;;6241149;23;20016;-74
2021/01/24 01:32:27;;;;;;;7.13;2.78;;;23.60;50.30;;;;;;6240304;23;19997;-73
2021/01/24 01:35:33;;;;;;;10.68;3.20;;;23.60;50.00;;;;;;6240192;23;20014;-70
2021/01/24 01:38:39;;;;;;;4.95;2.17;;;23.60;49.70;;;;;;6240955;23;20495;-72
2021/01/24 01:41:48;;;;;;;9.77;2.70;;;23.60;49.30;;;;;;6241337;23;20324;-71
2021/01/24 01:44:54;;;;;;;7.50;2.30;;;23.60;48.80;;;;;;6240245;23;20373;-71
2021/01/24 01:48:03;;;;;;;5.40;1.92;;;23.60;48.40;;;;;;6239815;23;20058;-72
2021/01/24 01:51:09;;;;;;;4.13;1.70;;;23.60;48.30;;;;;;6241030;23;20000;-70
2021/01/24 01:54:15;;;;;;;3.92;1.73;;;23.50;48.20;;;;;;6239957;23;20004;-70
2021/01/24 01:57:21;;;;;;;8.95;1.45;;;23.50;48.10;;;;;;6239913;23;20593;-70
2021/01/24 02:00:27;;;;;;;5.50;2.08;;;23.50;48.00;;;;;;6241336;23;20051;-70
2021/01/24 02:03:19;;;;;;;;;;;23.50;47.80;;;;;;6241322;23;20428;-70
2021/01/24 02:06:29;;;;;;;3.70;1.45;;;23.50;47.70;;;;;;6239743;23;19939;-70
2021/01/24 02:09:35;;;;;;;4.43;1.20;;;23.50;47.60;;;;;;6239541;23;20012;-70
2021/01/24 02:12:53;;;;;;;5.20;1.63;;;23.40;47.50;;;;;;6240725;23;20008;-73
2021/01/24 02:15:59;;;;;;;5.38;1.42;;;23.50;47.50;;;;;;6240274;23;20387;-71
2021/01/24 02:18:45;;;;;;;;;;;23.40;47.40;;;;;;6239490;23;20329;-73
2021/01/24 02:21:57;;;;;;;6.03;1.48;;;23.40;47.40;;;;;;6240233;23;19946;-70
2021/01/24 02:25:03;;;;;;;6.55;1.58;;;23.40;47.30;;;;;;6239617;23;20075;-71
2021/01/24 02:28:08;;;;;;;5.28;1.60;;;23.40;47.20;;;;;;6238244;23;20008;-72
2021/01/24 02:31:14;;;;;;;5.47;1.40;;;23.30;47.30;;;;;;6240171;22;20004;-70
2021/01/24 02:34:20;;;;;;;4.35;1.50;;;23.40;47.30;;;;;;6239981;23;20008;-71
2021/01/24 02:37:26;;;;;;;3.90;1.30;;;23.30;47.30;;;;;;6239230;23;20004;-71
2021/01/24 02:40:33;;;;;;;7.20;2.03;;;23.30;47.40;;;;;;6238821;23;20004;-70
2021/01/24 02:43:39;;;;;;;8.32;3.08;;;23.40;47.50;;;;;;6240702;23;20019;-69
2021/01/24 02:46:46;;;;;;;9.68;2.08;;;23.30;47.50;;;;;;6240440;22;20000;-70
2021/01/24 02:49:52;;;;;;;17.67;7.35;;;23.30;47.70;;;;;;6237375;23;20016;-70
2021/01/24 02:52:58;;;;;;;16.25;10.70;;;23.30;47.70;;;;;;6239114;23;20428;-70
2021/01/24 02:56:04;;;;;;;8.35;5.88;;;23.30;47.80;;;;;;6241030;23;19996;-70
2021/01/24 02:59:11;;;;;;;10.07;4.32;;;23.30;47.90;;;;;;6239499;23;20020;-70
2021/01/24 03:02:17;;;;;;;7.40;2.58;;;23.20;48.00;;;;;;6238863;23;20382;-73
2021/01/24 03:05:23;;;;;;;4.00;1.77;;;23.30;48.20;;;;;;6239699;23;20571;-71
2021/01/24 03:08:29;;;;;;;4.65;1.80;;;23.20;48.30;;;;;;6239960;23;20015;-71
2021/01/24 03:11:36;;;;;;;12.60;1.75;;;23.20;48.40;;;;;;6238837;23;20000;-71
2021/01/24 03:14:42;;;;;;;4.10;1.45;;;23.20;48.60;;;;;;6239450;23;20381;-73
2021/01/24 03:17:48;;;;;;;3.13;1.25;;;23.20;48.70;;;;;;6240511;23;20751;-70
2021/01/24 03:20:55;;;;;;;6.65;2.00;;;23.20;48.80;;;;;;6239750;23;20028;-71
2021/01/24 03:24:01;;;;;;;5.57;2.15;;;23.10;49.00;;;;;;6239010;23;20004;-72
2021/01/24 03:27:07;;;;;;;5.47;2.00;;;23.10;49.10;;;;;;6240535;23;20051;-70
2021/01/24 03:30:13;;;;;;;5.85;1.60;;;23.10;49.30;;;;;;6240047;23;20039;-72
2021/01/24 03:33:19;;;;;;;3.15;1.75;;;23.10;49.40;;;;;;6238813;23;20062;-71
2021/01/24 03:36:26;;;;;;;7.85;1.80;;;23.10;49.60;;;;;;6239550;23;20608;-72
2021/01/24 03:39:32;;;;;;;6.28;1.83;;;23.10;49.60;;;;;;6239826;22;20004;-71
2021/01/24 03:42:38;;;;;;;8.40;2.22;;;23.10;49.70;;;;;;6240212;23;20086;-70
2021/01/24 03:45:45;;;;;;;6.45;2.35;;;23.10;49.80;;;;;;6238675;23;20004;-71
2021/01/24 03:48:51;;;;;;;7.70;1.35;;;23.00;49.90;;;;;;6241777;23;20024;-72
2021/01/24 03:51:57;;;;;;;4.95;1.80;;;23.00;50.00;;;;;;6240245;23;20084;-71
2021/01/24 03:55:03;;;;;;;10.18;3.33;;;23.00;50.10;;;;;;6238860;23;20004;-71
2021/01/24 03:58:09;;;;;;;17.80;8.35;;;23.00;50.20;;;;;;6239449;23;20071;-70
2021/01/24 04:01:15;;;;;;;7.38;5.30;;;23.00;50.30;;;;;;6239655;23;20344;-71
2021/01/24 04:04:21;;;;;;;7.10;4.93;;;23.00;50.40;;;;;;6239268;23;20000;-71
2021/01/24 04:07:27;;;;;;;6.32;2.80;;;22.90;50.50;;;;;;6236978;23;20019;-72
2021/01/24 04:10:33;;;;;;;8.90;3.13;;;22.90;50.60;;;;;;6240371;23;20012;-71
2021/01/24 04:13:39;;;;;;;4.20;1.80;;;22.90;50.80;;;;;;6240094;23;20024;-71
2021/01/24 04:16:45;;;;;;;8.85;2.15;;;22.90;51.10;;;;;;6238835;23;20322;-70
2021/01/24 04:19:51;;;;;;;7.32;2.35;;;22.90;51.30;;;;;;6239100;23;20004;-71
2021/01/24 04:22:58;;;;;;;8.40;1.63;;;22.90;51.50;;;;;;6240406;23;20432;-71
2021/01/24 04:26:04;;;;;;;4.80;2.08;;;22.90;51.60;;;;;;6240211;23;20007;-72
2021/01/24 04:29:10;;;;;;;9.48;2.00;;;22.90;51.80;;;;;;6240539;23;20027;-71
2021/01/24 04:32:16;;;;;;;6.10;2.38;;;22.90;51.90;;;;;;6241693;23;19996;-76
2021/01/24 04:35:22;;;;;;;6.85;2.17;;;22.90;52.10;;;;;;6242154;23;20435;-70
2021/01/24 04:38:28;;;;;;;9.93;2.58;;;22.80;52.20;;;;;;6240794;23;20011;-70
2021/01/24 04:41:34;;;;;;;9.25;2.47;;;22.80;52.50;;;;;;6240074;23;20004;-70
2021/01/24 04:44:40;;;;;;;12.30;2.65;;;22.80;52.80;;;;;;6240470;23;20711;-71
2021/01/24 04:47:46;;;;;;;9.18;2.55;;;22.80;53.20;;;;;;6240969;23;20003;-71
2021/01/24 04:50:52;;;;;;;10.10;2.33;;;22.80;53.40;;;;;;6239587;23;20084;-70
2021/01/24 04:53:58;;;;;;;11.18;2.90;;;22.80;53.40;;;;;;6240892;23;20015;-69
2021/01/24 04:57:04;;;;;;;13.40;6.20;;;22.80;53.60;;;;;;6241486;23;20042;-73
2021/01/24 05:00:11;;;;;;;6.57;5.00;;;22.80;53.70;;;;;;6239777;23;20091;-69
2021/01/24 05:03:17;;;;;;;12.40;4.18;;;22.80;53.70;;;;;;6239620;22;20071;-70
2021/01/24 05:06:24;;;;;;;9.27;2.97;;;22.80;53.70;;;;;;6241519;23;20000;-71
2021/01/24 05:09:30;;;;;;;6.43;3.38;;;22.80;53.60;;;;;;6240064;23;20126;-72
2021/01/24 05:12:36;;;;;;;7.72;2.65;;;22.80;53.50;;;;;;6239453;23;20009;-70
2021/01/24 05:15:42;;;;;;;12.43;3.40;;;22.80;53.40;;;;;;6240610;23;20001;-70
2021/01/24 05:18:48;;;;;;;12.30;3.55;;;22.80;53.20;;;;;;6241029;23;20000;-72
2021/01/24 05:21:57;;;;;;;8.00;2.95;;;22.80;53.00;;;;;;6239731;23;20012;-71
2021/01/24 05:25:03;;;;;;;8.98;2.55;;;22.80;52.90;;;;;;6237573;23;20062;-72
2021/01/24 05:28:09;;;;;;;10.63;3.38;;;22.80;52.90;;;;;;6240255;23;20008;-70
2021/01/24 05:31:24;;;;;;;10.07;3.47;;;22.80;52.80;;;;;;6240075;23;20000;-70
2021/01/24 05:34:30;;;;;;;12.27;3.80;;;22.80;53.00;;;;;;6238744;23;20031;-70
2021/01/24 05:37:37;;;;;;;16.20;3.47;;;22.80;53.20;;;;;;6239299;23;20011;-75
2021/01/24 05:40:43;;;;;;;12.45;3.80;;;22.90;53.40;;;;;;6240029;22;20021;-77
2021/01/24 05:43:52;;;;;;;12.85;3.40;;;22.80;53.30;;;;;;6240572;22;20000;-71
2021/01/24 05:46:58;;;;;;;9.13;2.40;;;22.90;53.40;;;;;;6239342;23;20515;-71
2021/01/24 05:50:14;;;;;;;7.63;2.95;;;22.90;53.30;;;;;;6240470;23;20339;-71
2021/01/24 05:53:26;;;;;;;8.75;2.00;;;22.90;53.30;;;;;;6240834;23;20073;-71
2021/01/24 05:56:32;;;;;;;7.28;2.20;;;22.90;53.20;;;;;;6239150;23;20018;-71
2021/01/24 05:59:41;;;;;;;14.07;3.92;;;22.90;53.00;;;;;;6239922;23;20004;-74
2021/01/24 06:02:47;;;;;;;11.75;3.67;;;23.00;52.80;;;;;;6240629;23;20016;-72
2021/01/24 06:05:53;;;;;;;12.63;3.40;;;23.00;52.40;;;;;;6241245;23;20440;-77
2021/01/24 06:08:20;;;;;;;6.50;2.13;;;23.00;52.40;;;;;;6239209;23;20070;-72
2021/01/24 06:10:46;;;;;;;12.73;4.45;;;23.00;52.40;;;;;;6240187;23;20023;-71
2021/01/24 06:13:23;;;;;;;8.73;2.88;;;23.00;52.40;;;;;;6239795;23;20031;-72
2021/01/24 06:15:55;;;;;;;14.55;2.65;;;23.10;52.30;;;;;;6239716;23;20011;-73
2021/01/24 06:19:01;;;;;;;12.13;2.83;;;23.10;52.20;;;;;;6235810;23;20437;-70
2021/01/24 06:22:07;;;;;;;7.45;2.97;;;23.10;52.10;;;;;;6238738;23;20005;-71
2021/01/24 06:25:13;;;;;;;17.60;2.50;;;23.10;52.00;;;;;;6239642;23;20008;-72
2021/01/24 06:28:28;;;;;;;9.23;2.38;;;23.20;52.00;;;;;;6240172;23;20012;-71
2021/01/24 06:31:34;;;;;;;13.18;4.20;;;23.20;52.20;;;;;;6237614;23;20008;-72
2021/01/24 06:34:52;;;;;;;8.82;6.18;;;23.30;52.40;;;;;;6239314;23;20083;-71
2021/01/24 06:37:58;;;;;;;13.50;5.72;;;23.20;52.40;;;;;;6237335;23;20008;-72
2021/01/24 06:41:04;;;;;;;9.82;5.30;;;23.30;52.50;;;;;;6237044;23;20087;-74
2021/01/24 06:44:10;;;;;;;15.10;4.63;;;23.30;52.40;;;;;;6238196;23;20011;-71
2021/01/24 06:46:37;;;;;;;11.32;2.92;;;23.40;52.30;;;;;;6237964;23;20004;-73
2021/01/24 06:50:01;;;;;;;9.75;4.25;;;23.40;52.30;;;;;;6237847;23;20721;-71
2021/01/24 06:53:07;;;;;;;11.10;2.47;;;23.40;52.20;;;;;;6239018;23;20007;-72
2021/01/24 06:56:13;;;;;;;7.28;2.42;;;23.40;52.00;;;;;;6235699;23;20371;-75
2021/01/24 06:59:28;;;;;;;7.40;2.60;;;23.40;51.80;;;;;;6239400;23;20381;-71
2021/01/24 07:02:38;;;;;;;10.95;3.38;;;23.50;51.50;;;;;;6239446;23;20563;-71
2021/01/24 07:05:19;;;;;;;10.70;2.65;;;23.50;51.50;;;;;;6237131;23;20007;-71
2021/01/24 07:07:50;;;;;;;10.55;1.85;;;23.50;51.40;;;;;;6239510;23;20086;-75
2021/01/24 07:10:49;;;;;;;7.57;2.58;;;23.60;51.30;;;;;;6239480;23;20058;-72
2021/01/24 07:13:30;;;;;;;7.43;2.45;;;23.50;50.60;;;;;;6204304;22;20004;-72
2021/01/24 07:16:05;;;;;;;4.35;1.92;;;23.50;50.40;;;;;;6239812;23;20031;-76
2021/01/24 07:18:43;;;;;;;6.07;2.10;;;23.60;50.50;;;;;;6239756;22;20003;-71
2021/01/24 07:21:12;;;;;;;4.80;2.25;;;23.60;50.50;;;;;;6237017;23;20439;-76
2021/01/24 07:23:41;;;;;;;5.65;1.30;;;23.70;50.30;;;;;;6240034;23;20077;-71
2021/01/24 07:26:10;;;;;;;5.53;2.13;;;23.70;50.40;;;;;;6236418;23;20012;-71
2021/01/24 07:28:37;;;;;;;8.07;3.83;;;23.70;50.10;;;;;;6239768;23;20031;-73
2021/01/24 07:31:05;;;;;;;7.13;2.72;;;23.70;50.10;;;;;;6239356;23;20000;-72
2021/01/24 07:33:32;;;;;;;5.25;2.00;;;23.70;49.90;;;;;;6240117;22;20021;-72
2021/01/24 07:36:04;;;;;;;9.60;2.55;;;23.80;49.90;;;;;;6240156;23;20010;-73
2021/01/24 07:38:31;;;;;;;9.45;2.95;;;23.80;49.80;;;;;;6237760;23;20564;-71
2021/01/24 07:41:00;;;;;;;6.85;2.42;;;23.80;49.90;;;;;;6240403;22;20004;-73
2021/01/24 07:43:28;;;;;;;5.80;2.15;;;23.80;49.60;;;;;;6239180;23;20004;-72
2021/01/24 07:45:55;;;;;;;3.47;1.50;;;23.90;49.50;;;;;;6239985;22;20004;-71
2021/01/24 07:49:01;;;;;;;20.60;3.08;;;23.90;49.50;;;;;;6233218;23;20046;-71
2021/01/24 07:51:28;;;;;;;5.10;1.50;;;23.90;49.20;;;;;;6238634;23;20054;-72
2021/01/24 07:53:56;;;;;;;6.60;1.75;;;23.90;49.00;;;;;;6238995;22;20004;-71
2021/01/24 07:56:23;;;;;;;8.63;2.20;;;23.90;48.90;;;;;;6238227;23;20011;-71
2021/01/24 07:58:50;;;;;;;9.60;2.00;;;23.90;48.70;;;;;;6237423;23;20004;-75
2021/01/24 08:01:17;;;;;;;5.28;1.52;;;23.90;48.40;;;;;;6238379;23;20070;-71
2021/01/24 08:03:43;;;;;;;11.07;2.70;;;23.90;48.40;;;;;;6240231;23;20003;-73
2021/01/24 08:06:11;;;;;;;5.00;1.80;;;23.90;48.20;;;;;;6240741;23;20527;-71
2021/01/24 08:08:39;;;;;;;4.78;1.60;;;24.00;48.10;;;;;;6238921;23;20138;-77
2021/01/24 08:11:06;;;;;;;4.20;1.65;;;24.00;48.20;;;;;;6240080;22;20436;-71
2021/01/24 08:13:34;;;;;;;4.70;2.35;;;24.00;48.20;;;;;;6239059;23;20309;-71
2021/01/24 08:16:28;;;;;;;5.45;1.65;;;24.10;48.60;;;;;;6240564;23;20000;-71
2021/01/24 08:18:56;;;;;;;17.88;10.32;;;24.10;48.40;;;;;;6237216;23;20032;-71
2021/01/24 08:21:25;;;;;;;7.72;3.30;;;24.10;47.90;;;;;;6238905;23;20408;-75
2021/01/24 08:23:53;;;;;;;7.38;2.65;;;24.10;48.30;;;;;;6241078;23;20312;-70
2021/01/24 08:26:21;;;;;;;6.10;2.53;;;24.20;48.60;;;;;;6236141;23;20049;-70
2021/01/24 08:28:49;;;;;;;10.25;3.10;;;24.20;47.70;;;;;;6239706;23;20012;-72
2021/01/24 08:31:22;;;;;;;8.13;2.53;;;24.20;47.70;;;;;;6238531;23;20028;-76
2021/01/24 08:33:52;;;;;;;8.13;2.22;;;24.30;48.00;;;;;;6241014;23;20011;-76
2021/01/24 08:36:24;;;;;;;8.25;2.33;;;24.30;47.80;;;;;;6240430;23;20008;-74
2021/01/24 08:39:01;;;;;;;11.20;2.20;;;24.30;47.50;;;;;;6238897;23;20007;-78
2021/01/24 08:42:08;;;;;;;5.07;1.63;;;24.30;47.70;;;;;;6240139;23;20007;-72
2021/01/24 08:45:20;;;;;;;7.43;2.42;;;24.30;47.90;;;;;;6239504;23;20023;-76
2021/01/24 08:48:33;;;;;;;9.48;2.10;;;24.40;47.30;;;;;;6237926;23;20026;-72
2021/01/24 08:51:39;;;;;;;8.07;1.50;;;24.40;47.00;;;;;;6239580;23;20004;-73
2021/01/24 08:54:14;;;;;;;;;;;24.40;46.80;;;;;;6240934;23;20392;-71
2021/01/24 08:57:12;;;;;;;7.20;2.00;;;24.40;46.30;;;;;;6239183;23;19907;-75
2021/01/24 09:00:18;;;;;;;10.30;2.58;;;24.50;45.00;;;;;;6233928;22;20020;-70
2021/01/24 09:03:24;;;;;;;8.23;2.25;;;24.40;45.30;;;;;;6241742;23;20011;-70
2021/01/24 09:06:10;;;;;;;;;;;24.40;45.00;;;;;;6238155;23;20012;-72
2021/01/24 09:09:16;;;;;;;7.35;2.13;;;24.50;44.80;;;;;;6233541;23;19911;-71
2021/01/24 09:12:02;;;;;;;;;;;24.60;44.90;;;;;;6241744;23;20566;-71
2021/01/24 09:15:08;;;;;;;18.48;2.50;;;24.60;45.20;;;;;;6240854;23;20279;-82
2021/01/24 09:18:14;;;;;;;7.35;2.17;;;24.60;44.90;;;;;;6240660;23;20481;-71
2021/01/24 09:21:00;;;;;;;;;;;24.60;45.10;;;;;;6241280;23;20031;-73
2021/01/24 09:24:06;;;;;;;15.55;5.07;;;24.70;45.30;;;;;;6239040;23;19900;-72
2021/01/24 09:26:52;;;;;;;;;;;24.70;45.50;;;;;;6239746;23;20061;-72
2021/01/24 09:29:59;;;;;;;9.55;2.90;;;24.80;45.40;;;;;;6240174;23;20343;-78
2021/01/24 09:33:06;;;;;;;11.48;2.40;;;24.80;46.00;;;;;;6239485;23;20366;-72
2021/01/24 09:36:13;;;;;;;10.38;2.30;;;24.80;45.30;;;;;;6239168;22;20000;-76
2021/01/24 09:39:20;;;;;;;8.98;2.53;;;24.90;45.40;;;;;;6238606;23;20004;-75
2021/01/24 09:42:27;;;;;;;7.43;1.63;;;25.00;45.30;;;;;;6240490;23;20328;-75
2021/01/24 09:45:34;;;;;;;7.70;2.85;;;25.00;45.30;;;;;;6239328;22;20020;-77
2021/01/24 09:48:40;;;;;;;7.53;2.30;;;25.00;44.90;;;;;;6240150;23;20012;-73
2021/01/24 09:51:43;;;;;;;11.07;2.63;;;25.00;45.10;;;;;;6240765;23;20000;-73
2021/01/24 09:54:10;;;;;;;6.32;2.83;;;25.10;45.10;;;;;;6237993;23;20024;-73
2021/01/24 09:56:38;;;;;;;8.88;3.13;;;25.10;45.00;;;;;;6239823;23;20004;-73
2021/01/24 09:59:05;;;;;;;8.40;2.75;;;25.20;44.70;;;;;;6241225;23;20008;-76
2021/01/24 10:01:33;;;;;;;8.02;2.72;;;25.20;44.90;;;;;;6239199;23;20023;-72
2021/01/24 10:04:00;;;;;;;7.35;2.80;;;25.20;45.10;;;;;;6240371;23;20424;-76
2021/01/24 10:06:27;;;;;;;14.18;2.33;;;25.30;45.30;;;;;;6239127;23;20000;-76
2021/01/24 10:08:54;;;;;;;5.35;2.42;;;25.30;44.80;;;;;;6240111;23;20015;-74
2021/01/24 10:11:23;;;;;;;13.88;4.13;;;25.30;44.80;;;;;;6238975;23;19997;-75
2021/01/24 10:13:50;;;;;;;7.82;2.55;;;25.40;44.50;;;;;;6238384;23;20007;-79
2021/01/24 10:16:17;;;;;;;10.88;3.95;;;25.40;44.00;;;;;;6241771;23;19997;-74
2021/01/24 10:18:43;;;;;;;7.68;2.25;;;25.40;44.00;;;;;;6239153;23;20004;-80
2021/01/24 10:21:10;;;;;;;17.10;2.92;;;25.50;43.90;;;;;;6239978;23;20328;-77
2021/01/24 10:23:38;;;;;;;15.38;2.05;;;25.40;43.70;;;;;;6234635;23;20327;-77
2021/01/24 10:26:05;;;;;;;7.53;2.20;;;25.40;43.90;;;;;;6238426;23;20527;-74
2021/01/24 10:29:11;;;;;;;8.23;2.85;;;25.40;44.20;;;;;;6239489;23;20011;-72
2021/01/24 10:31:38;;;;;;;12.35;2.42;;;25.50;43.40;;;;;;6239917;23;20011;-75
2021/01/24 10:34:04;;;;;;;9.15;2.53;;;25.60;43.50;;;;;;6241293;22;20420;-77
2021/01/24 10:36:31;;;;;;;9.68;2.20;;;25.60;43.70;;;;;;6240401;23;20458;-78
2021/01/24 10:38:57;;;;;;;8.90;2.58;;;25.60;43.40;;;;;;6241887;23;20001;-80
2021/01/24 10:41:24;;;;;;;7.35;2.05;;;25.60;43.50;;;;;;6241270;23;19996;-77
2021/01/24 10:43:51;;;;;;;11.68;2.22;;;25.70;43.60;;;;;;6241362;23;20031;-76
2021/01/24 10:46:17;;;;;;;12.95;1.90;;;25.70;43.30;;;;;;6241483;23;20008;-76
2021/01/24 10:48:44;;;;;;;11.18;2.55;;;25.70;43.20;;;;;;6240929;23;20447;-74
2021/01/24 10:51:11;;;;;;;11.65;2.20;;;25.70;42.90;;;;;;6241976;23;20004;-72
2021/01/24 10:53:37;;;;;;;6.68;2.03;;;25.80;42.90;;;;;;6239936;23;20509;-75
2021/01/24 10:56:04;;;;;;;7.95;2.10;;;25.80;42.90;;;;;;6241410;23;20001;-74
2021/01/24 10:58:31;;;;;;;6.32;2.55;;;25.80;42.50;;;;;;6240497;23;20046;-78
2021/01/24 11:00:57;;;;;;;7.70;2.17;;;25.90;42.80;;;;;;6241322;23;20027;-77
2021/01/24 11:03:24;;;;;;;15.18;2.17;;;25.80;42.50;;;;;;6239394;23;20432;-74
2021/01/24 11:05:51;;;;;;;11.77;2.17;;;25.80;42.80;;;;;;6240108;23;20465;-75
2021/01/24 11:08:18;;;;;;;11.95;2.05;;;25.90;43.00;;;;;;6239111;23;20004;-74
2021/01/24 11:10:44;;;;;;;17.13;3.35;;;25.90;43.00;;;;;;6237249;23;20340;-74
2021/01/24 11:13:11;;;;;;;10.18;2.55;;;25.90;43.40;;;;;;6240210;23;20012;-75
2021/01/24 11:15:38;;;;;;;14.57;2.58;;;26.00;43.60;;;;;;6238291;23;20075;-73
2021/01/24 11:18:05;;;;;;;9.48;2.53;;;26.00;43.70;;;;;;6240462;23;20447;-74
2021/01/24 11:20:33;;;;;;;9.00;2.63;;;26.00;43.90;;;;;;6238792;22;20332;-76
2021/01/24 11:22:59;;;;;;;12.57;3.08;;;26.00;43.80;;;;;;6239596;23;20071;-77
2021/01/24 11:25:26;;;;;;;10.50;2.83;;;26.00;43.80;;;;;;6241170;23;19996;-72
2021/01/24 11:27:52;;;;;;;11.80;2.72;;;26.10;43.80;;;;;;6238597;23;20004;-76
2021/01/24 11:30:19;;;;;;;12.55;2.55;;;26.10;43.90;;;;;;6240888;22;20079;-72
2021/01/24 11:32:46;;;;;;;12.30;3.13;;;26.10;44.10;;;;;;6237681;22;20051;-71
2021/01/24 11:35:15;;;;;;;5.60;2.30;;;26.20;44.20;;;;;;6238421;23;20008;-71
2021/01/24 11:37:42;;;;;;;10.85;2.35;;;26.20;44.30;;;;;;6242531;23;20025;-73
2021/01/24 11:40:09;;;;;;;14.95;3.00;;;26.30;44.20;;;;;;6241955;23;20000;-73
2021/01/24 11:42:36;;;;;;;10.30;2.85;;;26.30;43.90;;;;;;6241218;23;20065;-72
2021/01/24 11:45:05;;;;;;;24.48;3.60;;;26.30;44.30;;;;;;6241063;23;20036;-81
2021/01/24 11:47:31;;;;;;;19.63;2.50;;;26.30;43.90;;;;;;6239839;23;20008;-72
2021/01/24 11:49:58;;;;;;;13.48;2.20;;;26.30;44.00;;;;;;6239730;23;20320;-72
2021/01/24 11:52:24;;;;;;;21.65;3.78;;;26.30;43.80;;;;;;6242632;23;20404;-78
2021/01/24 11:54:51;;;;;;;12.32;2.33;;;26.30;43.80;;;;;;6240309;23;20035;-70
2021/01/24 11:57:18;;;;;;;21.08;3.28;;;26.40;43.90;;;;;;6241376;23;20323;-73
2021/01/24 11:59:44;;;;;;;9.13;2.35;;;26.40;43.70;;;;;;6241610;23;20087;-79
2021/01/24 12:02:11;;;;;;;15.00;7.28;;;26.40;43.70;;;;;;6242054;23;20046;-71
2021/01/24 12:04:37;;;;;;;16.02;3.90;;;26.40;43.80;;;;;;6240677;22;20008;-79
2021/01/24 12:07:05;;;;;;;9.57;3.22;;;26.40;43.70;;;;;;6237950;23;20011;-77
2021/01/24 12:09:31;;;;;;;13.07;3.17;;;26.40;43.80;;;;;;6239742;22;20027;-75
2021/01/24 12:11:58;;;;;;;7.85;2.92;;;26.50;43.60;;;;;;6238006;23;20004;-81
2021/01/24 12:14:24;;;;;;;10.25;2.75;;;26.40;43.50;;;;;;6242814;23;20072;-80
2021/01/24 12:16:51;;;;;;;6.72;3.22;;;26.40;43.60;;;;;;6241591;23;20027;-72
2021/01/24 12:19:17;;;;;;;9.73;1.80;;;26.50;44.00;;;;;;6242517;23;20000;-77
2021/01/24 12:21:44;;;;;;;9.27;4.25;;;26.50;44.10;;;;;;6242958;23;20000;-75
2021/01/24 12:24:10;;;;;;;12.80;4.00;;;26.60;43.60;;;;;;6242051;23;20416;-77
2021/01/24 12:26:37;;;;;;;19.15;4.15;;;26.60;43.80;;;;;;6243369;23;20424;-78
2021/01/24 12:29:04;;;;;;;12.23;2.80;;;26.60;44.20;;;;;;6240509;23;20146;-73
2021/01/24 12:31:31;;;;;;;12.52;2.22;;;26.70;44.10;;;;;;6242635;23;20042;-83
2021/01/24 12:33:58;;;;;;;7.97;2.70;;;26.70;44.10;;;;;;6243222;23;19996;-82
2021/01/24 12:36:25;;;;;;;11.85;2.50;;;26.70;43.80;;;;;;6242488;23;20054;-77
2021/01/24 12:38:51;;;;;;;14.23;3.50;;;26.70;43.90;;;;;;6242970;23;19996;-87
2021/01/24 12:41:18;;;;;;;6.65;2.63;;;26.70;44.10;;;;;;6243646;23;20050;-87
2021/01/24 12:43:45;;;;;;;12.77;2.40;;;26.80;44.20;;;;;;6244682;23;20126;-75
2021/01/24 12:46:12;;;;;;;11.63;2.40;;;26.80;44.20;;;;;;6243458;23;20011;-84
2021/01/24 12:48:39;;;;;;;17.15;3.05;;;26.80;43.90;;;;;;6244043;23;20012;-80
2021/01/24 12:51:06;;;;;;;12.70;3.03;;;26.70;43.80;;;;;;6243776;23;20324;-83
2021/01/24 12:53:42;;;;;;;8.50;2.42;;;26.70;44.10;;;;;;6241849;23;20415;-87
2021/01/24 12:56:08;;;;;;;6.85;2.00;;;26.80;44.10;;;;;;6215190;23;20008;-79
2021/01/24 12:58:35;;;;;;;13.27;3.55;;;26.80;44.20;;;;;;6241902;23;20024;-72
2021/01/24 13:01:01;;;;;;;11.70;2.35;;;26.90;44.20;;;;;;6242385;23;20016;-82
2021/01/24 13:03:28;;;;;;;7.47;1.77;;;26.80;44.20;;;;;;6240220;23;20825;-84
2021/01/24 13:05:54;;;;;;;13.50;3.00;;;26.80;44.00;;;;;;6242791;23;20004;-82
2021/01/24 13:08:21;;;;;;;15.48;2.20;;;26.80;44.00;;;;;;6242074;23;20008;-85
2021/01/24 13:10:48;;;;;;;7.45;2.33;;;26.80;44.10;;;;;;6242284;23;20000;-82
2021/01/24 13:13:14;;;;;;;8.07;1.98;;;26.80;44.30;;;;;;6242393;23;19996;-79
2021/01/24 13:15:41;;;;;;;11.05;2.78;;;26.80;44.10;;;;;;6243193;23;20485;-87
2021/01/24 13:18:07;;;;;;;8.98;2.63;;;26.90;44.10;;;;;;6243850;23;20736;-89
2021/01/24 13:20:34;;;;;;;6.63;1.63;;;26.90;43.90;;;;;;6242982;23;20424;-83
2021/01/24 13:23:00;;;;;;;7.78;2.03;;;27.00;44.00;;;;;;6242026;23;20004;-84
2021/01/24 13:25:27;;;;;;;7.03;1.73;;;27.00;44.00;;;;;;6242220;23;20045;-76
2021/01/24 13:27:53;;;;;;;12.15;5.18;;;27.00;43.80;;;;;;6242408;23;20049;-80
2021/01/24 13:30:20;;;;;;;11.65;3.80;;;27.00;43.80;;;;;;6241920;23;20000;-75
2021/01/24 13:32:46;;;;;;;12.55;3.33;;;27.10;43.90;;;;;;6241996;23;19992;-79
2021/01/24 13:35:13;;;;;;;10.95;3.08;;;27.10;44.00;;;;;;6242654;23;20073;-80
2021/01/24 13:37:40;;;;;;;16.70;3.15;;;27.10;44.10;;;;;;6240869;23;20345;-80
2021/01/24 13:40:07;;;;;;;14.55;2.85;;;27.10;43.90;;;;;;6239461;22;20436;-72
2021/01/24 13:42:34;;;;;;;21.67;3.60;;;27.10;44.00;;;;;;6240113;23;20370;-81
2021/01/24 13:45:00;;;;;;;9.75;2.33;;;27.00;43.80;;;;;;6243709;23;20000;-75
2021/01/24 13:47:27;;;;;;;13.88;3.13;;;27.10;44.20;;;;;;6240616;23;20420;-75
2021/01/24 13:49:53;;;;;;;11.77;4.18;;;27.10;44.00;;;;;;6241349;23;20021;-75
2021/01/24 13:52:20;;;;;;;11.63;2.58;;;27.00;43.80;;;;;;6241296;23;20000;-74
2021/01/24 13:54:48;;;;;;;10.93;2.80;;;27.10;44.00;;;;;;6239844;23;20054;-74
2021/01/24 13:57:15;;;;;;;10.63;2.67;;;27.10;44.60;;;;;;6240004;23;20058;-73
2021/01/24 13:59:41;;;;;;;8.57;1.83;;;27.10;44.20;;;;;;6239401;23;20103;-73
2021/01/24 14:02:08;;;;;;;7.40;2.30;;;27.10;44.50;;;;;;6241228;23;20030;-80
2021/01/24 14:04:34;;;;;;;14.38;2.42;;;27.10;44.10;;;;;;6239421;23;20068;-80
2021/01/24 14:07:01;;;;;;;10.60;3.83;;;27.10;43.90;;;;;;6242272;23;20084;-78
2021/01/24 14:09:27;;;;;;;8.80;3.83;;;27.00;43.80;;;;;;6240442;23;20016;-78
2021/01/24 14:11:54;;;;;;;11.82;2.40;;;27.00;44.00;;;;;;6240119;23;19992;-78
2021/01/24 14:14:20;;;;;;;8.18;3.13;;;27.10;44.00;;;;;;6242855;23;19996;-79